createdAt,value
2019-01-22T00:00:35.526Z,-10.48
2019-01-22T00:01:41.301Z,-10.45
2019-01-22T00:02:47.057Z,-10.44
2019-01-22T00:03:52.850Z,-10.39
2019-01-22T00:04:58.606Z,-10.33
2019-01-22T00:06:04.354Z,-10.30
2019-01-22T00:07:10.147Z,-10.30
2019-01-22T00:08:15.919Z,-10.31
2019-01-22T00:09:21.674Z,-10.36
2019-01-22T00:10:27.438Z,-10.41
2019-01-22T00:11:33.207Z,-10.43
2019-01-22T00:12:38.995Z,-10.45
2019-01-22T00:13:44.753Z,-10.46
2019-01-22T00:14:50.629Z,-10.46
2019-01-22T00:15:56.272Z,-10.48
2019-01-22T00:17:02.048Z,-10.46
2019-01-22T00:18:07.802Z,-10.46
2019-01-22T00:19:13.573Z,-10.44
2019-01-22T00:20:19.337Z,-10.42
2019-01-22T00:21:25.107Z,-10.42
2019-01-22T00:22:30.871Z,-10.47
2019-01-22T00:23:36.631Z,-10.50
2019-01-22T00:24:42.406Z,-10.57
2019-01-22T00:25:48.156Z,-10.58
2019-01-22T00:26:53.920Z,-10.59
2019-01-22T00:27:59.675Z,-10.60
2019-01-22T00:29:05.460Z,-10.62
2019-01-22T00:30:11.215Z,-10.65
2019-01-22T00:31:16.982Z,-10.68
2019-01-22T00:32:22.744Z,-10.72
2019-01-22T00:33:28.618Z,-10.77
2019-01-22T00:34:34.286Z,-10.82
2019-01-22T00:35:40.059Z,-10.85
2019-01-22T00:36:45.796Z,-10.88
2019-01-22T00:37:51.565Z,-10.91
2019-01-22T00:38:57.330Z,-10.92
2019-01-22T00:40:03.082Z,-10.87
2019-01-22T00:41:08.838Z,-10.84
2019-01-22T00:42:14.609Z,-10.82
2019-01-22T00:43:20.351Z,-10.77
2019-01-22T00:44:26.153Z,-10.74
2019-01-22T00:45:31.877Z,-10.71
2019-01-22T00:46:37.645Z,-10.68
2019-01-22T00:47:44.399Z,-10.65
2019-01-22T00:48:49.180Z,-10.64
2019-01-22T00:49:54.935Z,-10.65
2019-01-22T00:51:00.695Z,-10.66
2019-01-22T00:52:06.456Z,-10.68
2019-01-22T00:53:12.209Z,-10.70
2019-01-22T00:54:17.977Z,-10.70
2019-01-22T00:55:23.716Z,-10.73
2019-01-22T00:56:29.491Z,-10.76
2019-01-22T00:57:35.254Z,-10.79
2019-01-22T00:58:41.016Z,-10.81
2019-01-22T00:59:46.771Z,-10.82
2019-01-22T01:00:52.610Z,-10.85
2019-01-22T01:01:58.291Z,-10.87
2019-01-22T01:03:04.054Z,-10.89
2019-01-22T01:04:09.833Z,-10.91
2019-01-22T01:05:15.607Z,-10.93
2019-01-22T01:06:22.326Z,-10.92
2019-01-22T01:07:27.092Z,-10.90
2019-01-22T01:08:32.357Z,-10.87
2019-01-22T01:09:38.610Z,-10.84
2019-01-22T01:10:44.369Z,-10.81
2019-01-22T01:11:50.117Z,-10.82
2019-01-22T01:12:55.884Z,-10.82
2019-01-22T01:14:01.679Z,-10.86
2019-01-22T01:15:07.392Z,-10.89
2019-01-22T01:16:13.151Z,-10.91
2019-01-22T01:17:18.904Z,-10.89
2019-01-22T01:18:24.679Z,-10.87
2019-01-22T01:19:30.417Z,-10.88
2019-01-22T01:20:36.173Z,-10.92
2019-01-22T01:21:41.925Z,-10.95
2019-01-22T01:22:47.684Z,-10.96
2019-01-22T01:23:53.450Z,-11.00
2019-01-22T01:24:59.207Z,-11.01
2019-01-22T01:26:04.957Z,-10.99
2019-01-22T01:27:10.713Z,-10.98
2019-01-22T01:28:17.449Z,-10.98
2019-01-22T01:29:22.234Z,-10.98
2019-01-22T01:30:27.976Z,-10.98
2019-01-22T01:31:33.727Z,-10.99
2019-01-22T01:32:39.476Z,-10.97
2019-01-22T01:33:45.280Z,-10.92
2019-01-22T01:34:51.006Z,-10.85
2019-01-22T01:35:56.742Z,-10.79
2019-01-22T01:37:02.619Z,-10.78
2019-01-22T01:38:08.253Z,-10.79
2019-01-22T01:39:13.993Z,-10.80
2019-01-22T01:40:19.753Z,-10.83
2019-01-22T01:41:25.502Z,-10.86
2019-01-22T01:42:31.279Z,-10.86
2019-01-22T01:43:37.028Z,-10.85
2019-01-22T01:44:42.780Z,-10.85
2019-01-22T01:45:48.615Z,-10.89
2019-01-22T01:46:54.279Z,-10.93
2019-01-22T01:48:00.096Z,-10.96
2019-01-22T01:49:06.805Z,-10.92
2019-01-22T01:50:11.541Z,-10.86
2019-01-22T01:51:17.309Z,-10.82
2019-01-22T01:52:23.052Z,-10.80
2019-01-22T01:53:28.806Z,-10.76
2019-01-22T01:54:34.616Z,-10.78
2019-01-22T01:55:40.315Z,-10.81
2019-01-22T01:56:46.060Z,-10.85
2019-01-22T01:57:51.815Z,-10.89
2019-01-22T01:58:57.569Z,-10.92
2019-01-22T02:00:03.346Z,-10.96
2019-01-22T02:01:09.073Z,-10.98
2019-01-22T02:02:14.842Z,-11.01
2019-01-22T02:03:20.618Z,-11.06
2019-01-22T02:04:27.329Z,-11.08
2019-01-22T02:05:31.605Z,-11.10
2019-01-22T02:06:37.845Z,-11.10
2019-01-22T02:07:43.601Z,-11.10
2019-01-22T02:08:49.389Z,-11.11
2019-01-22T02:09:55.110Z,-11.14
2019-01-22T02:11:00.838Z,-11.19
2019-01-22T02:12:06.620Z,-11.21
2019-01-22T02:13:12.351Z,-11.21
2019-01-22T02:14:18.098Z,-11.23
2019-01-22T02:15:23.852Z,-11.23
2019-01-22T02:16:29.594Z,-11.21
2019-01-22T02:17:36.335Z,-11.22
2019-01-22T02:18:41.095Z,-11.25
2019-01-22T02:19:47.830Z,-11.24
2019-01-22T02:20:52.616Z,-11.23
2019-01-22T02:21:58.360Z,-11.22
2019-01-22T02:23:04.089Z,-11.22
2019-01-22T02:24:09.840Z,-11.20
2019-01-22T02:25:15.608Z,-11.14
2019-01-22T02:26:21.358Z,-11.08
2019-01-22T02:27:27.105Z,-11.05
2019-01-22T02:28:32.831Z,-11.06
2019-01-22T02:29:39.572Z,-11.06
2019-01-22T02:30:44.337Z,-11.04
2019-01-22T02:31:51.094Z,-11.06
2019-01-22T02:32:55.841Z,-11.07
2019-01-22T02:34:01.641Z,-11.05
2019-01-22T02:35:07.358Z,-11.01
2019-01-22T02:36:13.083Z,-11.01
2019-01-22T02:37:18.831Z,-11.04
2019-01-22T02:38:24.581Z,-11.04
2019-01-22T02:39:30.336Z,-11.06
2019-01-22T02:40:36.073Z,-11.08
2019-01-22T02:41:41.828Z,-11.09
2019-01-22T02:42:47.576Z,-11.06
2019-01-22T02:43:53.318Z,-11.04
2019-01-22T02:44:59.061Z,-11.00
2019-01-22T02:46:04.795Z,-10.96
2019-01-22T02:47:10.636Z,-10.94
2019-01-22T02:48:16.343Z,-10.98
2019-01-22T02:49:22.052Z,-11.04
2019-01-22T02:50:27.795Z,-11.09
2019-01-22T02:51:33.537Z,-11.10
2019-01-22T02:52:39.297Z,-11.06
2019-01-22T02:53:45.034Z,-11.05
2019-01-22T02:54:50.782Z,-11.10
2019-01-22T02:55:56.606Z,-11.16
2019-01-22T02:57:02.274Z,-11.25
2019-01-22T02:58:08.029Z,-11.30
2019-01-22T02:59:13.778Z,-11.32
2019-01-22T03:00:19.543Z,-11.32
2019-01-22T03:01:25.250Z,-11.33
2019-01-22T03:02:31.003Z,-11.35
2019-01-22T03:03:36.741Z,-11.34
2019-01-22T03:04:42.630Z,-11.34
2019-01-22T03:05:48.238Z,-11.34
2019-01-22T03:06:53.977Z,-11.32
2019-01-22T03:07:59.733Z,-11.30
2019-01-22T03:09:05.462Z,-11.29
2019-01-22T03:10:11.225Z,-11.28
2019-01-22T03:11:16.955Z,-11.30
2019-01-22T03:12:22.727Z,-11.33
2019-01-22T03:13:28.447Z,-11.36
2019-01-22T03:14:34.180Z,-11.42
2019-01-22T03:15:39.946Z,-11.45
2019-01-22T03:16:45.686Z,-11.45
2019-01-22T03:17:51.437Z,-11.39
2019-01-22T03:18:57.154Z,-11.31
2019-01-22T03:20:02.903Z,-11.25
2019-01-22T03:21:08.638Z,-11.24
2019-01-22T03:22:14.396Z,-11.25
2019-01-22T03:23:20.139Z,-11.27
2019-01-22T03:24:25.891Z,-11.26
2019-01-22T03:25:31.618Z,-11.21
2019-01-22T03:26:37.355Z,-11.13
2019-01-22T03:27:43.123Z,-11.09
2019-01-22T03:28:48.845Z,-11.00
2019-01-22T03:29:54.629Z,-10.95
2019-01-22T03:31:00.325Z,-10.89
2019-01-22T03:32:06.085Z,-10.83
2019-01-22T03:33:12.809Z,-10.80
2019-01-22T03:34:18.622Z,-10.79
2019-01-22T03:35:23.322Z,-10.78
2019-01-22T03:36:29.067Z,-10.76
2019-01-22T03:37:34.820Z,-10.68
2019-01-22T03:38:40.621Z,-10.56
2019-01-22T03:39:46.304Z,-10.46
2019-01-22T03:40:52.044Z,-10.42
2019-01-22T03:41:57.805Z,-10.42
2019-01-22T03:43:03.580Z,-10.43
2019-01-22T03:44:10.296Z,-10.42
2019-01-22T03:45:15.079Z,-10.43
2019-01-22T03:46:20.820Z,-10.40
2019-01-22T03:47:26.586Z,-10.30
2019-01-22T03:48:32.336Z,-10.24
2019-01-22T03:49:38.086Z,-10.14
2019-01-22T03:50:43.844Z,-10.06
2019-01-22T03:51:50.624Z,-9.93
2019-01-22T03:52:55.360Z,-9.78
2019-01-22T03:54:01.132Z,-9.66
2019-01-22T03:55:06.877Z,-9.56
2019-01-22T03:56:12.650Z,-9.45
2019-01-22T03:57:18.417Z,-9.32
2019-01-22T03:58:25.194Z,-9.23
2019-01-22T03:59:29.454Z,-9.14
2019-01-22T04:00:35.727Z,-9.02
2019-01-22T04:01:41.507Z,-8.95
2019-01-22T04:02:47.272Z,-8.85
2019-01-22T04:03:53.070Z,-8.76
2019-01-22T04:04:58.859Z,-8.68
2019-01-22T04:06:04.661Z,-8.62
2019-01-22T04:07:10.424Z,-8.59
2019-01-22T04:08:16.205Z,-8.59
2019-01-22T04:09:23.014Z,-8.61
2019-01-22T04:10:27.861Z,-8.56
2019-01-22T04:11:33.583Z,-8.49
2019-01-22T04:12:39.386Z,-8.43
2019-01-22T04:13:46.177Z,-8.36
2019-01-22T04:14:51.306Z,-8.30
2019-01-22T04:15:56.797Z,-8.27
2019-01-22T04:17:02.621Z,-8.23
2019-01-22T04:18:08.399Z,-8.16
2019-01-22T04:19:14.205Z,-8.10
2019-01-22T04:20:20.017Z,-8.04
2019-01-22T04:21:25.824Z,-7.99
2019-01-22T04:22:31.640Z,-7.96
2019-01-22T04:23:37.461Z,-7.93
2019-01-22T04:24:43.291Z,-7.90
2019-01-22T04:25:49.087Z,-7.88
2019-01-22T04:26:54.896Z,-7.88
2019-01-22T04:28:00.712Z,-7.89
2019-01-22T04:29:06.544Z,-7.90
2019-01-22T04:30:12.344Z,-7.90
2019-01-22T04:31:18.166Z,-7.88
2019-01-22T04:32:24.003Z,-7.87
2019-01-22T04:33:29.813Z,-7.85
2019-01-22T04:34:35.632Z,-7.81
2019-01-22T04:35:41.455Z,-7.79
2019-01-22T04:36:47.282Z,-7.79
2019-01-22T04:37:53.102Z,-7.77
2019-01-22T04:38:58.937Z,-7.75
2019-01-22T04:40:04.785Z,-7.72
2019-01-22T04:41:10.616Z,-7.68
2019-01-22T04:42:16.421Z,-7.66
2019-01-22T04:43:22.302Z,-7.65
2019-01-22T04:44:28.101Z,-7.63
2019-01-22T04:45:33.927Z,-7.62
2019-01-22T04:46:39.773Z,-7.62
2019-01-22T04:47:45.597Z,-7.59
2019-01-22T04:48:51.428Z,-7.57
2019-01-22T04:49:57.278Z,-7.55
2019-01-22T04:51:03.124Z,-7.55
2019-01-22T04:52:08.943Z,-7.54
2019-01-22T04:53:14.797Z,-7.53
2019-01-22T04:54:20.638Z,-7.54
2019-01-22T04:55:26.912Z,-7.53
2019-01-22T04:56:32.336Z,-7.53
2019-01-22T04:57:38.176Z,-7.51
2019-01-22T04:58:43.989Z,-7.49
2019-01-22T04:59:50.839Z,-7.48
2019-01-22T05:00:55.680Z,-7.46
2019-01-22T05:02:01.605Z,-7.42
2019-01-22T05:03:07.372Z,-7.39
2019-01-22T05:04:13.221Z,-7.38
2019-01-22T05:05:19.069Z,-7.37
2019-01-22T05:06:24.929Z,-7.37
2019-01-22T05:07:30.763Z,-7.35
2019-01-22T05:08:36.614Z,-7.35
2019-01-22T05:09:42.610Z,-7.35
2019-01-22T05:10:48.343Z,-7.39
2019-01-22T05:11:54.176Z,-7.39
2019-01-22T05:13:00.034Z,-7.41
2019-01-22T05:14:05.873Z,-7.40
2019-01-22T05:15:11.717Z,-7.38
2019-01-22T05:16:18.682Z,-7.34
2019-01-22T05:17:23.433Z,-7.28
2019-01-22T05:18:29.276Z,-7.23
2019-01-22T05:19:35.589Z,-7.20
2019-01-22T05:20:40.986Z,-7.16
2019-01-22T05:21:46.834Z,-7.12
2019-01-22T05:22:52.730Z,-7.06
2019-01-22T05:23:59.573Z,-7.03
2019-01-22T05:25:04.396Z,-7.01
2019-01-22T05:26:10.263Z,-6.99
2019-01-22T05:27:16.159Z,-6.97
2019-01-22T05:28:21.973Z,-6.96
2019-01-22T05:29:27.828Z,-6.96
2019-01-22T05:30:33.681Z,-6.97
2019-01-22T05:31:39.545Z,-7.00
2019-01-22T05:32:45.409Z,-7.00
2019-01-22T05:33:51.268Z,-6.98
2019-01-22T05:34:57.124Z,-6.96
2019-01-22T05:36:02.996Z,-6.96
2019-01-22T05:37:08.847Z,-6.96
2019-01-22T05:38:14.697Z,-6.96
2019-01-22T05:39:20.629Z,-6.98
2019-01-22T05:40:26.436Z,-6.98
2019-01-22T05:41:32.305Z,-6.98
2019-01-22T05:42:38.160Z,-6.96
2019-01-22T05:43:44.021Z,-6.95
2019-01-22T05:44:49.878Z,-6.96
2019-01-22T05:45:56.228Z,-6.98
2019-01-22T05:47:01.620Z,-6.97
2019-01-22T05:48:13.321Z,-6.98
2019-01-22T05:49:13.343Z,-6.98
2019-01-22T05:50:19.193Z,-7.00
2019-01-22T05:51:26.010Z,-7.01
2019-01-22T05:52:30.934Z,-7.00
2019-01-22T05:53:38.750Z,-6.98
2019-01-22T05:54:42.648Z,-6.97
2019-01-22T05:55:48.611Z,-6.95
2019-01-22T05:56:54.394Z,-6.94
2019-01-22T05:58:01.277Z,-6.93
2019-01-22T05:59:06.143Z,-6.94
2019-01-22T06:00:11.997Z,-6.95
2019-01-22T06:01:17.865Z,-6.96
2019-01-22T06:02:23.740Z,-6.97
2019-01-22T06:03:29.602Z,-6.95
2019-01-22T06:04:35.465Z,-6.93
2019-01-22T06:05:41.340Z,-6.91
2019-01-22T06:06:47.215Z,-6.90
2019-01-22T06:07:53.075Z,-6.88
2019-01-22T06:08:58.946Z,-6.86
2019-01-22T06:10:04.822Z,-6.86
2019-01-22T06:11:11.676Z,-6.85
2019-01-22T06:12:16.589Z,-6.83
2019-01-22T06:13:22.723Z,-6.82
2019-01-22T06:14:28.287Z,-6.80
2019-01-22T06:15:34.165Z,-6.80
2019-01-22T06:16:40.064Z,-6.78
2019-01-22T06:17:45.909Z,-6.78
2019-01-22T06:18:51.799Z,-6.77
2019-01-22T06:19:57.639Z,-6.76
2019-01-22T06:21:03.518Z,-6.75
2019-01-22T06:22:09.391Z,-6.74
2019-01-22T06:23:15.259Z,-6.72
2019-01-22T06:24:21.143Z,-6.69
2019-01-22T06:25:27.015Z,-6.69
2019-01-22T06:26:32.872Z,-6.66
2019-01-22T06:27:38.748Z,-6.64
2019-01-22T06:28:44.619Z,-6.60
2019-01-22T06:29:50.608Z,-6.59
2019-01-22T06:30:56.358Z,-6.56
2019-01-22T06:32:02.269Z,-6.54
2019-01-22T06:33:08.101Z,-6.52
2019-01-22T06:34:13.975Z,-6.49
2019-01-22T06:35:19.846Z,-6.47
2019-01-22T06:36:25.726Z,-6.45
2019-01-22T06:37:31.617Z,-6.43
2019-01-22T06:38:37.467Z,-6.40
2019-01-22T06:39:43.374Z,-6.38
2019-01-22T06:40:49.241Z,-6.35
2019-01-22T06:41:55.105Z,-6.30
2019-01-22T06:43:01.987Z,-6.23
2019-01-22T06:44:07.863Z,-6.17
2019-01-22T06:45:12.758Z,-6.13
2019-01-22T06:46:18.636Z,-6.11
2019-01-22T06:47:24.572Z,-6.08
2019-01-22T06:48:30.412Z,-6.06
2019-01-22T06:49:36.285Z,-6.03
2019-01-22T06:50:42.164Z,-6.00
2019-01-22T06:51:48.048Z,-5.98
2019-01-22T06:52:54.938Z,-5.95
2019-01-22T06:53:59.826Z,-5.94
2019-01-22T06:55:05.708Z,-5.94
2019-01-22T06:56:11.595Z,-5.94
2019-01-22T06:57:17.483Z,-5.93
2019-01-22T06:58:23.362Z,-5.91
2019-01-22T06:59:29.260Z,-5.91
2019-01-22T07:00:35.146Z,-5.91
2019-01-22T07:01:41.023Z,-5.90
2019-01-22T07:02:46.918Z,-5.89
2019-01-22T07:03:52.791Z,-5.89
2019-01-22T07:04:58.688Z,-5.87
2019-01-22T07:06:04.625Z,-5.88
2019-01-22T07:07:10.617Z,-5.85
2019-01-22T07:11:09.365Z,-5.93
2019-01-22T07:12:14.752Z,-5.94
2019-01-22T07:13:21.164Z,-5.94
2019-01-22T07:14:27.058Z,-5.93
2019-01-22T07:15:32.909Z,-5.91
2019-01-22T07:16:38.812Z,-5.91
2019-01-22T07:17:44.687Z,-5.89
2019-01-22T07:18:50.614Z,-5.89
2019-01-22T07:19:56.607Z,-5.90
2019-01-22T07:21:02.396Z,-5.91
2019-01-22T07:22:08.284Z,-5.92
2019-01-22T07:23:14.168Z,-5.92
2019-01-22T07:24:20.057Z,-5.91
2019-01-22T07:25:25.928Z,-5.93
2019-01-22T07:26:31.829Z,-5.94
2019-01-22T07:27:37.718Z,-5.92
2019-01-22T07:28:43.624Z,-5.92
2019-01-22T07:29:49.525Z,-5.91
2019-01-22T07:30:55.406Z,-5.91
2019-01-22T07:32:01.300Z,-5.91
2019-01-22T07:33:07.207Z,-5.93
2019-01-22T07:34:13.095Z,-5.93
2019-01-22T07:35:18.992Z,-5.92
2019-01-22T07:36:24.878Z,-5.93
2019-01-22T07:37:30.797Z,-5.92
2019-01-22T07:38:36.654Z,-5.92
2019-01-22T07:39:42.619Z,-5.92
2019-01-22T07:40:48.447Z,-5.92
2019-01-22T07:41:54.351Z,-5.89
2019-01-22T07:43:00.242Z,-5.88
2019-01-22T07:44:06.159Z,-5.89
2019-01-22T07:45:12.044Z,-5.90
2019-01-22T07:46:17.947Z,-5.90
2019-01-22T07:47:23.846Z,-5.88
2019-01-22T07:48:29.753Z,-5.87
2019-01-22T07:49:35.637Z,-5.86
2019-01-22T07:50:41.528Z,-5.83
2019-01-22T07:51:47.426Z,-5.79
2019-01-22T07:52:53.337Z,-5.80
2019-01-22T07:53:59.220Z,-5.80
2019-01-22T07:55:06.130Z,-5.81
2019-01-22T07:56:11.043Z,-5.80
2019-01-22T07:57:16.920Z,-5.81
2019-01-22T07:58:23.817Z,-5.82
2019-01-22T07:59:28.733Z,-5.84
2019-01-22T08:00:34.632Z,-5.85
2019-01-22T08:01:40.243Z,-5.88
2019-01-22T08:05:39.482Z,-5.95
2019-01-22T08:06:44.892Z,-5.95
2019-01-22T08:07:51.281Z,-5.93
2019-01-22T08:08:57.188Z,-5.91
2019-01-22T08:10:03.104Z,-5.93
2019-01-22T08:11:08.998Z,-6.01
2019-01-22T08:12:14.913Z,-6.04
2019-01-22T08:13:20.795Z,-6.06
2019-01-22T08:14:26.704Z,-6.09
2019-01-22T08:15:32.619Z,-6.10
2019-01-22T08:16:38.624Z,-6.09
2019-01-22T08:17:44.400Z,-6.08
2019-01-22T08:18:50.319Z,-6.07
2019-01-22T08:19:56.216Z,-6.10
2019-01-22T08:21:02.110Z,-6.12
2019-01-22T08:22:08.016Z,-6.13
2019-01-22T08:23:13.925Z,-6.12
2019-01-22T08:24:19.818Z,-6.09
2019-01-22T08:25:25.714Z,-6.08
2019-01-22T08:26:31.636Z,-6.08
2019-01-22T08:27:37.536Z,-6.10
2019-01-22T08:28:44.412Z,-6.14
2019-01-22T08:29:49.324Z,-6.15
2019-01-22T08:30:55.228Z,-6.14
2019-01-22T08:32:01.145Z,-6.14
2019-01-22T08:33:07.032Z,-6.15
2019-01-22T08:34:12.942Z,-6.19
2019-01-22T08:35:18.831Z,-6.23
2019-01-22T08:36:25.747Z,-6.23
2019-01-22T08:37:31.627Z,-6.26
2019-01-22T08:38:36.637Z,-6.26
2019-01-22T08:39:43.433Z,-6.27
2019-01-22T08:40:48.359Z,-6.28
2019-01-22T08:41:54.241Z,-6.30
2019-01-22T08:43:00.133Z,-6.33
2019-01-22T08:44:07.382Z,-6.39
2019-01-22T08:45:11.951Z,-6.43
2019-01-22T08:46:17.839Z,-6.43
2019-01-22T08:47:23.750Z,-6.42
2019-01-22T08:48:29.637Z,-6.39
2019-01-22T08:49:35.567Z,-6.40
2019-01-22T08:50:41.459Z,-6.42
2019-01-22T08:51:47.429Z,-6.43
2019-01-22T08:52:53.266Z,-6.45
2019-01-22T08:53:59.152Z,-6.44
2019-01-22T08:55:08.181Z,-6.41
2019-01-22T08:59:05.012Z,-6.31
2019-01-22T09:00:09.405Z,-6.28
2019-01-22T09:01:15.802Z,-6.25
2019-01-22T09:02:23.384Z,-6.24
2019-01-22T09:03:27.630Z,-6.24
2019-01-22T09:04:33.525Z,-6.18
2019-01-22T09:05:39.420Z,-6.14
2019-01-22T09:06:45.360Z,-6.12
2019-01-22T09:07:51.236Z,-6.12
2019-01-22T09:08:57.152Z,-6.13
2019-01-22T09:10:03.062Z,-6.13
2019-01-22T09:11:08.944Z,-6.12
2019-01-22T09:12:14.867Z,-6.11
2019-01-22T09:13:22.190Z,-6.11
2019-01-22T09:14:26.685Z,-6.09
2019-01-22T09:15:32.627Z,-6.05
2019-01-22T09:16:38.779Z,-6.05
2019-01-22T09:17:44.425Z,-6.03
2019-01-22T09:18:50.319Z,-6.02
2019-01-22T09:19:56.205Z,-6.00
2019-01-22T09:21:02.138Z,-5.94
2019-01-22T09:22:08.053Z,-5.93
2019-01-22T09:23:13.947Z,-5.92
2019-01-22T09:24:19.854Z,-5.89
2019-01-22T09:25:26.253Z,-5.88
2019-01-22T09:26:31.681Z,-5.87
2019-01-22T09:27:37.587Z,-5.83
2019-01-22T09:28:43.511Z,-5.79
2019-01-22T09:29:49.422Z,-5.74
2019-01-22T09:30:55.320Z,-5.68
2019-01-22T09:32:01.228Z,-5.63
2019-01-22T09:33:07.161Z,-5.64
2019-01-22T09:34:14.068Z,-5.65
2019-01-22T09:35:19.004Z,-5.64
2019-01-22T09:36:24.911Z,-5.61
2019-01-22T09:37:30.842Z,-5.62
2019-01-22T09:38:36.742Z,-5.63
2019-01-22T09:39:42.640Z,-5.62
2019-01-22T09:40:48.573Z,-5.56
2019-01-22T09:41:54.610Z,-5.51
2019-01-22T09:43:00.409Z,-5.46
2019-01-22T09:44:06.323Z,-5.43
2019-01-22T09:45:12.256Z,-5.40
2019-01-22T09:46:18.166Z,-5.38
2019-01-22T09:47:24.112Z,-5.38
2019-01-22T09:48:30.006Z,-5.40
2019-01-22T09:49:36.627Z,-5.40
2019-01-22T09:50:41.865Z,-5.44
2019-01-22T09:51:47.797Z,-5.44
2019-01-22T09:52:53.707Z,-5.47
2019-01-22T09:53:59.651Z,-5.49
2019-01-22T09:55:06.560Z,-5.49
2019-01-22T09:56:11.538Z,-5.49
2019-01-22T09:57:17.420Z,-5.48
2019-01-22T09:58:23.351Z,-5.44
2019-01-22T09:59:29.369Z,-5.42
2019-01-22T10:00:35.200Z,-5.40
2019-01-22T10:01:41.135Z,-5.36
2019-01-22T10:02:47.050Z,-5.32
2019-01-22T10:03:52.991Z,-5.28
2019-01-22T10:04:58.915Z,-5.23
2019-01-22T10:06:04.833Z,-5.23
2019-01-22T10:07:10.782Z,-5.23
2019-01-22T10:08:16.697Z,-5.24
2019-01-22T10:09:22.632Z,-5.23
2019-01-22T10:10:28.619Z,-5.20
2019-01-22T10:11:34.615Z,-5.18
2019-01-22T10:12:40.423Z,-5.17
2019-01-22T10:13:48.189Z,-5.15
2019-01-22T10:14:52.278Z,-5.14
2019-01-22T10:15:58.211Z,-5.14
2019-01-22T10:17:04.164Z,-5.10
2019-01-22T10:18:10.071Z,-5.08
2019-01-22T10:19:15.999Z,-5.07
2019-01-22T10:20:21.939Z,-5.04
2019-01-22T10:21:27.876Z,-5.04
2019-01-22T10:22:33.808Z,-5.01
2019-01-22T10:23:39.741Z,-4.98
2019-01-22T10:24:45.692Z,-4.97
2019-01-22T10:25:51.617Z,-4.96
2019-01-22T10:26:57.560Z,-4.97
2019-01-22T10:28:03.483Z,-4.97
2019-01-22T10:29:09.442Z,-4.90
2019-01-22T10:30:15.357Z,-4.79
2019-01-22T10:31:21.361Z,-4.73
2019-01-22T10:32:27.241Z,-4.71
2019-01-22T10:36:26.313Z,-4.80
2019-01-22T10:37:31.739Z,-4.81
2019-01-22T10:38:38.186Z,-4.84
2019-01-22T10:39:44.100Z,-4.87
2019-01-22T10:40:50.042Z,-4.83
2019-01-22T10:41:55.976Z,-4.79
2019-01-22T10:43:01.923Z,-4.75
2019-01-22T10:44:07.870Z,-4.73
2019-01-22T10:45:13.325Z,-4.70
2019-01-22T10:46:19.748Z,-4.72
2019-01-22T10:47:25.713Z,-4.73
2019-01-22T10:48:31.661Z,-4.73
2019-01-22T10:49:39.683Z,-4.70
2019-01-22T10:50:43.534Z,-4.64
2019-01-22T10:51:49.471Z,-4.64
2019-01-22T10:52:55.423Z,-4.66
2019-01-22T10:56:54.639Z,-4.58
2019-01-22T10:57:59.976Z,-4.57
2019-01-22T10:59:07.366Z,-4.62
2019-01-22T11:00:12.363Z,-4.65
2019-01-22T11:01:18.333Z,-4.67
2019-01-22T11:02:24.279Z,-4.74
2019-01-22T11:03:30.224Z,-4.73
2019-01-22T11:04:36.168Z,-4.67
2019-01-22T11:05:42.126Z,-4.63
2019-01-22T11:06:47.555Z,-4.65
2019-01-22T11:07:53.999Z,-4.64
2019-01-22T11:08:59.965Z,-4.65
2019-01-22T11:10:05.900Z,-4.68
2019-01-22T11:11:12.849Z,-4.70
2019-01-22T11:13:23.757Z,-4.59
2019-01-22T11:14:29.210Z,-4.52
2019-01-22T11:15:35.683Z,-4.50
2019-01-22T11:16:41.621Z,-4.50
2019-01-22T11:17:47.552Z,-4.49
2019-01-22T11:18:53.530Z,-4.49
2019-01-22T11:19:59.479Z,-4.49
2019-01-22T11:21:05.429Z,-4.46
2019-01-22T11:22:12.383Z,-4.51
2019-01-22T11:23:17.798Z,-4.49
2019-01-22T11:24:30.100Z,-4.45
2019-01-22T11:25:30.257Z,-4.43
2019-01-22T11:26:35.208Z,-4.38
2019-01-22T11:27:41.184Z,-4.34
2019-01-22T11:28:47.150Z,-4.33
2019-01-22T11:29:53.100Z,-4.32
2019-01-22T11:30:59.078Z,-4.31
2019-01-22T11:32:05.015Z,-4.31
2019-01-22T11:33:11.983Z,-4.34
2019-01-22T11:34:16.942Z,-4.37
2019-01-22T11:35:23.363Z,-4.37
2019-01-22T11:36:28.879Z,-4.33
2019-01-22T11:37:34.828Z,-4.29
2019-01-22T11:38:40.791Z,-4.30
2019-01-22T11:39:46.760Z,-4.30
2019-01-22T11:40:53.976Z,-4.24
2019-01-22T11:41:58.667Z,-4.18
2019-01-22T11:43:04.640Z,-4.16
2019-01-22T11:47:03.801Z,-4.15
2019-01-22T11:48:09.283Z,-4.18
2019-01-22T11:49:15.741Z,-4.18
2019-01-22T11:50:21.712Z,-4.18
2019-01-22T11:51:27.670Z,-4.18
2019-01-22T11:52:33.647Z,-4.12
2019-01-22T11:53:39.607Z,-4.04
2019-01-22T11:54:45.588Z,-3.95
2019-01-22T11:55:51.562Z,-3.87
2019-01-22T11:56:57.943Z,-3.82
2019-01-22T11:58:03.481Z,-3.83
2019-01-22T11:59:09.456Z,-3.91
2019-01-22T12:00:15.447Z,-3.94
2019-01-22T12:01:21.432Z,-3.92
2019-01-22T12:02:31.911Z,-3.94
2019-01-22T12:03:33.359Z,-3.96
2019-01-22T12:04:39.328Z,-3.93
2019-01-22T12:05:45.307Z,-3.86
2019-01-22T12:06:51.280Z,-3.77
2019-01-22T12:07:57.260Z,-3.65
2019-01-22T12:11:56.470Z,-3.55
2019-01-22T12:14:08.411Z,-3.52
2019-01-22T12:15:13.890Z,-3.55
2019-01-22T12:16:20.375Z,-3.55
2019-01-22T12:17:26.345Z,-3.56
2019-01-22T12:18:32.318Z,-3.58
2019-01-22T12:19:38.333Z,-3.58
2019-01-22T12:20:44.371Z,-3.60
2019-01-22T12:21:50.251Z,-3.59
2019-01-22T12:22:56.241Z,-3.58
2019-01-22T12:24:02.211Z,-3.56
2019-01-22T12:25:08.188Z,-3.53
2019-01-22T12:26:14.171Z,-3.50
2019-01-22T12:27:20.161Z,-3.46
2019-01-22T12:28:26.131Z,-3.43
2019-01-22T12:29:32.114Z,-3.42
2019-01-22T12:30:38.122Z,-3.39
2019-01-22T12:31:44.105Z,-3.33
2019-01-22T12:32:50.077Z,-3.30
2019-01-22T12:33:56.068Z,-3.29
2019-01-22T12:35:02.027Z,-3.28
2019-01-22T12:36:08.006Z,-3.28
2019-01-22T12:37:14.005Z,-3.27
2019-01-22T12:38:19.980Z,-3.26
2019-01-22T12:39:26.951Z,-3.27
2019-01-22T12:40:31.946Z,-3.24
2019-01-22T12:41:37.941Z,-3.21
2019-01-22T12:42:43.932Z,-3.18
2019-01-22T12:43:49.904Z,-3.17
2019-01-22T12:44:55.901Z,-3.19
2019-01-22T12:46:01.884Z,-3.17
2019-01-22T12:47:07.881Z,-3.13
2019-01-22T12:48:13.850Z,-3.10
2019-01-22T12:49:22.141Z,-3.08
2019-01-22T12:50:26.182Z,-3.10
2019-01-22T12:51:32.278Z,-3.16
2019-01-22T12:52:37.820Z,-3.25
2019-01-22T12:53:45.812Z,-3.28
2019-01-22T12:54:49.792Z,-3.24
2019-01-22T12:55:55.771Z,-3.14
2019-01-22T12:57:01.755Z,-3.06
2019-01-22T12:58:07.766Z,-3.08
2019-01-22T12:59:13.756Z,-3.11
2019-01-22T13:00:19.737Z,-3.19
2019-01-22T13:01:25.712Z,-3.26
2019-01-22T13:02:31.708Z,-3.26
2019-01-22T13:03:37.692Z,-3.21
2019-01-22T13:04:43.684Z,-3.17
2019-01-22T13:05:49.674Z,-3.17
2019-01-22T13:06:55.664Z,-3.16
2019-01-22T13:08:01.649Z,-3.22
2019-01-22T13:09:07.627Z,-3.30
2019-01-22T13:10:13.618Z,-3.37
2019-01-22T13:11:19.583Z,-3.41
2019-01-22T13:12:25.577Z,-3.43
2019-01-22T13:13:31.564Z,-3.39
2019-01-22T13:14:37.544Z,-3.31
2019-01-22T13:15:43.029Z,-3.22
2019-01-22T13:17:55.468Z,-3.16
2019-01-22T13:19:00.979Z,-3.16
2019-01-22T13:20:07.441Z,-3.14
2019-01-22T13:21:13.420Z,-3.16
2019-01-22T13:22:19.415Z,-3.16
2019-01-22T13:23:25.385Z,-3.17
2019-01-22T13:24:31.367Z,-3.16
2019-01-22T13:25:37.351Z,-3.16
2019-01-22T13:26:43.332Z,-3.14
2019-01-22T13:27:49.316Z,-3.12
2019-01-22T13:28:55.323Z,-3.10
2019-01-22T13:30:01.931Z,-3.11
2019-01-22T13:31:07.285Z,-3.09
2019-01-22T13:32:13.756Z,-3.05
2019-01-22T13:33:19.237Z,-3.03
2019-01-22T13:34:25.229Z,-3.04
2019-01-22T13:35:31.228Z,-3.07
2019-01-22T13:36:37.185Z,-3.08
2019-01-22T13:37:43.187Z,-3.09
2019-01-22T13:38:49.136Z,-3.06
2019-01-22T13:39:55.125Z,-3.01
2019-01-22T13:41:01.110Z,-2.97
2019-01-22T13:42:07.081Z,-2.96
2019-01-22T13:43:13.062Z,-3.01
2019-01-22T13:44:19.046Z,-3.02
2019-01-22T13:45:25.010Z,-3.01
2019-01-22T13:46:31.005Z,-2.99
2019-01-22T13:47:36.965Z,-2.95
2019-01-22T13:48:42.993Z,-2.91
2019-01-22T13:49:48.921Z,-2.85
2019-01-22T13:50:54.923Z,-2.81
2019-01-22T13:52:00.889Z,-2.80
2019-01-22T13:53:06.861Z,-2.80
2019-01-22T13:54:12.873Z,-2.80
2019-01-22T13:55:18.841Z,-2.79
2019-01-22T13:56:24.804Z,-2.74
2019-01-22T13:57:30.810Z,-2.69
2019-01-22T13:58:36.783Z,-2.67
2019-01-22T13:59:42.760Z,-2.64
2019-01-22T14:00:48.759Z,-2.63
2019-01-22T14:01:54.726Z,-2.62
2019-01-22T14:03:00.716Z,-2.61
2019-01-22T14:04:07.068Z,-2.60
2019-01-22T14:05:12.679Z,-2.61
2019-01-22T14:06:18.645Z,-2.61
2019-01-22T14:10:17.898Z,-2.58
2019-01-22T14:11:23.897Z,-2.55
2019-01-22T14:12:29.852Z,-2.53
2019-01-22T14:13:35.849Z,-2.53
2019-01-22T14:14:41.830Z,-2.53
2019-01-22T14:15:47.798Z,-2.54
2019-01-22T14:16:53.798Z,-2.56
2019-01-22T14:17:59.779Z,-2.57
2019-01-22T14:19:05.752Z,-2.56
2019-01-22T14:20:11.729Z,-2.55
2019-01-22T14:21:17.715Z,-2.53
2019-01-22T14:22:23.825Z,-2.50
2019-01-22T14:23:29.682Z,-2.50
2019-01-22T14:24:35.668Z,-2.50
2019-01-22T14:25:41.665Z,-2.50
2019-01-22T14:26:47.628Z,-2.49